createdAt,value
2017-11-16T00:02:05.410Z,102142.08
2017-11-16T00:04:33.025Z,102151.02
2017-11-16T00:07:00.595Z,102151.41
2017-11-16T00:09:29.067Z,102149.45
2017-11-16T00:11:56.644Z,102153.50
2017-11-16T00:14:24.355Z,102147.69
2017-11-16T00:16:51.922Z,102147.39
2017-11-16T00:19:19.494Z,102155.33
2017-11-16T00:21:47.078Z,102157.58
2017-11-16T00:24:14.646Z,102158.48
2017-11-16T00:26:42.214Z,102154.67
2017-11-16T00:29:09.783Z,102153.44
2017-11-16T00:31:37.350Z,102147.73
2017-11-16T00:34:04.913Z,102150.02
2017-11-16T00:36:32.536Z,102159.58
2017-11-16T00:39:00.128Z,102153.97
2017-11-16T00:41:27.700Z,102151.20
2017-11-16T00:43:55.272Z,102155.99
2017-11-16T00:46:23.766Z,102152.83
2017-11-16T00:48:51.328Z,102147.30
2017-11-16T00:51:19.804Z,102149.47
2017-11-16T00:53:47.370Z,102149.11
2017-11-16T00:56:15.854Z,102147.91
2017-11-16T00:58:44.088Z,102148.63
2017-11-16T01:01:11.650Z,102147.96
2017-11-16T01:03:39.250Z,102148.28
2017-11-16T01:06:06.818Z,102140.89
2017-11-16T01:08:34.437Z,102139.28
2017-11-16T01:11:02.002Z,102138.47
2017-11-16T01:13:30.338Z,102142.18
2017-11-16T01:15:57.913Z,102136.89
2017-11-16T01:18:26.297Z,102137.88
2017-11-16T01:20:54.544Z,102136.66
2017-11-16T01:23:22.111Z,102128.53
2017-11-16T01:25:50.463Z,102132.61
2017-11-16T01:28:18.065Z,102135.47
2017-11-16T01:30:46.532Z,102130.00
2017-11-16T01:33:14.132Z,102137.97
2017-11-16T01:35:41.693Z,102136.77
2017-11-16T01:38:10.223Z,102137.19
2017-11-16T01:40:38.559Z,102137.97
2017-11-16T01:43:06.885Z,102138.36
2017-11-16T01:45:34.453Z,102145.00
2017-11-16T01:48:02.952Z,102143.63
2017-11-16T01:50:31.308Z,102140.39
2017-11-16T01:52:59.649Z,102150.27
2017-11-16T01:55:28.160Z,102148.63
2017-11-16T01:57:56.518Z,102140.16
2017-11-16T02:00:25.007Z,102135.02
2017-11-16T02:02:53.380Z,102132.54
2017-11-16T02:05:21.812Z,102128.08
2017-11-16T02:07:50.214Z,102121.42
2017-11-16T02:10:17.810Z,102125.25
2017-11-16T02:12:45.380Z,102120.91
2017-11-16T02:15:12.982Z,102120.74
2017-11-16T02:17:41.245Z,102114.30
2017-11-16T02:20:08.924Z,102106.15
2017-11-16T02:22:36.548Z,102107.14
2017-11-16T02:25:04.249Z,102112.49
2017-11-16T02:27:31.986Z,102105.43
2017-11-16T02:29:59.675Z,102106.55
2017-11-16T02:32:27.245Z,102104.55
2017-11-16T02:34:54.901Z,102109.43
2017-11-16T02:37:22.565Z,102110.36
2017-11-16T02:39:50.231Z,102104.60
2017-11-16T02:42:17.840Z,102110.47
2017-11-16T02:44:45.418Z,102104.89
2017-11-16T02:47:13.033Z,102104.66
2017-11-16T02:49:40.600Z,102103.13
2017-11-16T02:52:08.180Z,102103.16
2017-11-16T02:54:35.757Z,102109.26
2017-11-16T02:57:03.368Z,102111.95
2017-11-16T02:59:30.934Z,102106.91
2017-11-16T03:01:59.503Z,102114.41
2017-11-16T03:04:27.082Z,102107.90
2017-11-16T03:06:54.649Z,102108.45
2017-11-16T03:09:22.229Z,102109.09
2017-11-16T03:11:49.846Z,102108.58
2017-11-16T03:14:17.415Z,102115.23
2017-11-16T03:16:45.010Z,102113.69
2017-11-16T03:19:12.578Z,102118.05
2017-11-16T03:21:40.193Z,102116.48
2017-11-16T03:24:07.770Z,102105.95
2017-11-16T03:26:35.337Z,102105.27
2017-11-16T03:29:02.915Z,102101.02
2017-11-16T03:31:30.488Z,102104.64
2017-11-16T03:33:58.057Z,102106.50
2017-11-16T03:36:25.677Z,102108.80
2017-11-16T03:38:53.247Z,102105.84
2017-11-16T03:41:20.813Z,102106.27
2017-11-16T03:43:48.378Z,102101.47
2017-11-16T03:46:15.948Z,102097.66
2017-11-16T03:48:44.101Z,102099.31
2017-11-16T03:51:11.674Z,102095.48
2017-11-16T03:53:39.247Z,102102.25
2017-11-16T03:56:06.827Z,102096.81
2017-11-16T03:58:34.434Z,102096.58
2017-11-16T04:01:02.095Z,102099.05
2017-11-16T04:03:29.667Z,102101.07
2017-11-16T04:05:57.302Z,102096.78
2017-11-16T04:08:24.872Z,102104.45
2017-11-16T04:10:52.539Z,102099.39
2017-11-16T04:13:20.196Z,102093.03
2017-11-16T04:15:47.786Z,102090.39
2017-11-16T04:18:15.359Z,102083.69
2017-11-16T04:20:42.931Z,102090.42
2017-11-16T04:23:10.497Z,102083.20
2017-11-16T04:25:38.076Z,102086.59
2017-11-16T04:28:05.638Z,102075.66
2017-11-16T04:30:33.203Z,102078.11
2017-11-16T04:33:00.881Z,102079.44
2017-11-16T04:35:28.481Z,102080.40
2017-11-16T04:37:56.050Z,102086.80
2017-11-16T04:40:23.621Z,102084.83
2017-11-16T04:42:51.238Z,102088.34
2017-11-16T04:45:18.806Z,102080.72
2017-11-16T04:47:46.454Z,102091.24
2017-11-16T04:50:14.024Z,102093.53
2017-11-16T04:52:41.594Z,102082.22
2017-11-16T04:55:09.165Z,102085.38
2017-11-16T04:57:36.733Z,102086.69
2017-11-16T05:00:04.356Z,102087.06
2017-11-16T05:02:31.924Z,102089.33
2017-11-16T05:04:59.494Z,102091.25
2017-11-16T05:07:27.058Z,102088.93
2017-11-16T05:09:54.627Z,102079.88
2017-11-16T05:12:22.202Z,102077.53
2017-11-16T05:14:49.766Z,102076.30
2017-11-16T05:17:17.337Z,102078.94
2017-11-16T05:19:44.946Z,102081.37
2017-11-16T05:22:12.599Z,102081.71
2017-11-16T05:24:40.167Z,102077.66
2017-11-16T05:27:07.738Z,102079.02
2017-11-16T05:29:35.383Z,102089.66
2017-11-16T05:32:02.953Z,102084.06
2017-11-16T05:34:30.527Z,102076.06
2017-11-16T05:36:58.172Z,102082.27
2017-11-16T05:39:25.745Z,102078.73
2017-11-16T05:41:53.370Z,102076.56
2017-11-16T05:44:20.957Z,102079.09
2017-11-16T05:46:48.555Z,102082.27
2017-11-16T05:49:16.133Z,102084.98
2017-11-16T05:51:43.746Z,102087.80
2017-11-16T05:54:11.323Z,102092.70
2017-11-16T05:56:38.885Z,102101.06
2017-11-16T05:59:06.458Z,102106.80
2017-11-16T06:01:34.021Z,102108.45
2017-11-16T06:04:01.633Z,102107.48
2017-11-16T06:06:29.202Z,102103.22
2017-11-16T06:08:56.775Z,102100.71
2017-11-16T06:11:24.342Z,102101.03
2017-11-16T06:13:51.923Z,102095.57
2017-11-16T06:16:19.500Z,102098.63
2017-11-16T06:18:47.107Z,102098.53
2017-11-16T06:21:14.682Z,102096.02
2017-11-16T06:23:42.340Z,102094.91
2017-11-16T06:26:09.917Z,102100.63
2017-11-16T06:28:37.499Z,102104.63
2017-11-16T06:31:05.121Z,102098.77
2017-11-16T06:33:32.702Z,102106.30
2017-11-16T06:36:00.281Z,102106.92
2017-11-16T06:38:27.854Z,102109.49
2017-11-16T06:40:55.426Z,102115.20
2017-11-16T06:43:22.993Z,102112.80
2017-11-16T06:45:50.556Z,102113.23
2017-11-16T06:48:18.125Z,102113.88
2017-11-16T06:50:45.710Z,102112.86
2017-11-16T06:53:13.286Z,102115.61
2017-11-16T06:55:40.891Z,102120.12
2017-11-16T06:58:08.457Z,102123.95
2017-11-16T07:00:36.029Z,102114.33
2017-11-16T07:03:03.594Z,102116.14
2017-11-16T07:05:31.166Z,102109.38
2017-11-16T07:07:58.737Z,102112.54
2017-11-16T07:10:26.390Z,102108.97
2017-11-16T07:12:53.966Z,102113.58
2017-11-16T07:15:21.541Z,102118.86
2017-11-16T07:17:49.156Z,102118.08
2017-11-16T07:20:16.728Z,102121.06
2017-11-16T07:22:44.307Z,102122.45
2017-11-16T07:25:11.877Z,102120.16
2017-11-16T07:27:39.440Z,102129.32
2017-11-16T07:30:07.006Z,102123.73
2017-11-16T07:32:34.566Z,102126.28
2017-11-16T07:35:02.130Z,102131.52
2017-11-16T07:37:30.605Z,102129.16
2017-11-16T07:39:58.245Z,102132.27
2017-11-16T07:42:25.810Z,102126.44
2017-11-16T07:44:53.372Z,102131.02
2017-11-16T07:47:20.937Z,102131.55
2017-11-16T07:49:48.507Z,102123.09
2017-11-16T07:52:16.074Z,102131.24
2017-11-16T07:54:43.677Z,102124.48
2017-11-16T07:57:11.245Z,102125.14
2017-11-16T07:59:38.810Z,102122.59
2017-11-16T08:02:06.378Z,102131.53
2017-11-16T08:04:33.942Z,102116.55
2017-11-16T08:07:01.618Z,102123.08
2017-11-16T08:09:29.280Z,102117.74
2017-11-16T08:11:56.850Z,102118.63
2017-11-16T08:14:24.423Z,102110.12
2017-11-16T08:16:52.069Z,102109.05
2017-11-16T08:19:19.729Z,102113.05
2017-11-16T08:21:47.298Z,102111.94
2017-11-16T08:24:14.866Z,102114.36
2017-11-16T08:26:42.514Z,102111.19
2017-11-16T08:29:10.079Z,102109.89
2017-11-16T08:31:37.691Z,102110.21
2017-11-16T08:34:05.266Z,102109.22
2017-11-16T08:36:32.830Z,102107.30
2017-11-16T08:39:00.394Z,102114.17
2017-11-16T08:41:28.043Z,102117.61
2017-11-16T08:43:55.610Z,102112.88
2017-11-16T08:46:23.181Z,102114.38
2017-11-16T08:48:50.858Z,102111.87
2017-11-16T08:51:18.426Z,102118.53
2017-11-16T08:53:45.994Z,102117.98
2017-11-16T08:56:13.610Z,102111.00
2017-11-16T08:58:41.178Z,102106.84
2017-11-16T09:01:08.747Z,102113.05
2017-11-16T09:03:36.445Z,102108.63
2017-11-16T09:06:04.098Z,102112.64
2017-11-16T09:08:31.681Z,102116.45
2017-11-16T09:10:59.251Z,102114.80
2017-11-16T09:13:26.823Z,102115.88
2017-11-16T09:15:54.442Z,102110.86
2017-11-16T09:18:22.038Z,102113.07
2017-11-16T09:20:49.801Z,102106.98
2017-11-16T09:23:17.432Z,102108.33
2017-11-16T09:25:44.991Z,102110.95
2017-11-16T09:28:12.656Z,102110.22
2017-11-16T09:30:40.225Z,102113.13
2017-11-16T09:33:07.880Z,102109.56
2017-11-16T09:35:35.538Z,102104.98
2017-11-16T09:38:03.157Z,102109.72
2017-11-16T09:40:30.761Z,102104.47
2017-11-16T09:42:58.417Z,102107.48
2017-11-16T09:45:25.991Z,102109.21
2017-11-16T09:47:53.650Z,102102.51
2017-11-16T09:50:21.312Z,102101.80
2017-11-16T09:52:48.881Z,102105.52
2017-11-16T09:55:16.492Z,102101.30
2017-11-16T09:57:44.093Z,102102.20
2017-11-16T10:00:11.706Z,102096.27
2017-11-16T10:02:39.275Z,102095.41
2017-11-16T10:05:06.841Z,102086.66
2017-11-16T10:07:34.401Z,102087.26
2017-11-16T10:10:01.995Z,102089.08
2017-11-16T10:12:29.562Z,102085.34
2017-11-16T10:14:57.130Z,102077.77
2017-11-16T10:17:24.726Z,102084.99
2017-11-16T10:19:52.294Z,102079.16
2017-11-16T10:22:19.898Z,102079.92
2017-11-16T10:24:47.465Z,102076.95
2017-11-16T10:27:15.030Z,102077.33
2017-11-16T10:29:42.606Z,102068.56
2017-11-16T10:32:10.249Z,102064.68
2017-11-16T10:34:37.914Z,102064.70
2017-11-16T10:37:05.485Z,102053.42
2017-11-16T10:39:33.053Z,102048.50
2017-11-16T10:42:00.621Z,102042.77
2017-11-16T10:44:28.193Z,102034.67
2017-11-16T10:46:55.802Z,102040.55
2017-11-16T10:49:23.371Z,102040.80
2017-11-16T10:51:51.042Z,102038.89
2017-11-16T10:54:18.613Z,102038.66
2017-11-16T10:56:46.188Z,102041.80
2017-11-16T10:59:13.826Z,102045.70
2017-11-16T11:01:41.416Z,102048.98
2017-11-16T11:04:08.997Z,102055.59
2017-11-16T11:06:36.572Z,102056.55
2017-11-16T11:09:04.147Z,102058.53
2017-11-16T11:11:31.715Z,102056.03
2017-11-16T11:13:59.290Z,102058.45
2017-11-16T11:16:26.854Z,102057.02
2017-11-16T11:18:54.425Z,102056.33
2017-11-16T11:21:22.069Z,102045.50
2017-11-16T11:23:49.643Z,102047.28
2017-11-16T11:26:17.401Z,102045.62
2017-11-16T11:28:45.058Z,102043.02
2017-11-16T11:31:12.625Z,102038.58
2017-11-16T11:33:40.282Z,102041.16
2017-11-16T11:36:07.957Z,102031.67
2017-11-16T11:38:35.533Z,102033.66
2017-11-16T11:41:03.174Z,102027.06
2017-11-16T11:43:30.830Z,102019.18
2017-11-16T11:45:58.405Z,102014.91
2017-11-16T11:48:26.021Z,102019.03
2017-11-16T11:50:53.614Z,102010.01
2017-11-16T11:53:21.173Z,102012.18
2017-11-16T11:55:48.747Z,102006.84
2017-11-16T11:58:16.319Z,102013.43
2017-11-16T12:00:43.886Z,102005.27
2017-11-16T12:03:11.526Z,102001.99
2017-11-16T12:05:39.106Z,101995.58
2017-11-16T12:08:06.746Z,101990.92
2017-11-16T12:10:34.354Z,101994.78
2017-11-16T12:13:01.925Z,101991.84
2017-11-16T12:15:29.503Z,101989.80
2017-11-16T12:17:57.070Z,101988.65
2017-11-16T12:20:24.679Z,101988.38
2017-11-16T12:22:52.315Z,101990.30
2017-11-16T12:25:19.882Z,101987.89
2017-11-16T12:27:47.501Z,101984.95
2017-11-16T12:30:15.061Z,101983.78
2017-11-16T12:32:42.673Z,101972.31
2017-11-16T12:35:10.278Z,101981.02
2017-11-16T12:37:37.846Z,101981.54
2017-11-16T12:40:05.457Z,101979.47
2017-11-16T12:42:33.067Z,101982.76
2017-11-16T12:45:00.640Z,101979.95
2017-11-16T12:47:28.233Z,101981.73
2017-11-16T12:49:55.811Z,101978.02
2017-11-16T12:52:23.410Z,101974.19
2017-11-16T12:54:51.001Z,101971.77
2017-11-16T12:57:18.609Z,101969.36
2017-11-16T12:59:46.182Z,101952.07
2017-11-16T13:02:13.795Z,101954.34
2017-11-16T13:04:41.357Z,101958.61
2017-11-16T13:07:08.974Z,101952.37
2017-11-16T13:09:36.534Z,101955.75
2017-11-16T13:12:04.111Z,101949.17
2017-11-16T13:14:31.682Z,101944.63
2017-11-16T13:16:59.855Z,101944.83
2017-11-16T13:19:27.465Z,101934.04
2017-11-16T13:21:55.036Z,101931.69
2017-11-16T13:24:22.654Z,101926.22
2017-11-16T13:26:50.318Z,101928.56
2017-11-16T13:29:17.894Z,101926.86
2017-11-16T13:31:45.466Z,101930.08
2017-11-16T13:34:13.031Z,101930.69
2017-11-16T13:36:40.600Z,101928.69
2017-11-16T13:39:08.169Z,101924.34
2017-11-16T13:41:35.742Z,101914.70
2017-11-16T13:44:03.311Z,101913.42
2017-11-16T13:46:30.892Z,101906.91
2017-11-16T13:48:58.570Z,101912.91
2017-11-16T13:51:26.137Z,101908.52
2017-11-16T13:53:53.702Z,101896.21
2017-11-16T13:56:21.275Z,101903.05
2017-11-16T13:58:48.870Z,101899.89
2017-11-16T14:01:16.445Z,101896.57
2017-11-16T14:03:44.014Z,101889.16
2017-11-16T14:06:11.599Z,101889.80
2017-11-16T14:08:39.161Z,101886.14
2017-11-16T14:11:06.763Z,101886.94
2017-11-16T14:13:34.325Z,101890.01
2017-11-16T14:16:01.917Z,101886.92
2017-11-16T14:18:29.473Z,101894.92
2017-11-16T14:20:57.037Z,101881.82
2017-11-16T14:23:24.598Z,101880.87
2017-11-16T14:25:52.182Z,101876.25
2017-11-16T14:28:19.781Z,101867.19
2017-11-16T14:30:48.286Z,101862.95
2017-11-16T14:33:15.854Z,101860.30
2017-11-16T14:35:43.418Z,101854.45
2017-11-16T14:38:11.031Z,101854.55
2017-11-16T14:40:38.594Z,101860.72
2017-11-16T14:43:06.203Z,101856.38
2017-11-16T14:45:33.771Z,101858.77
2017-11-16T14:48:01.357Z,101855.34
2017-11-16T14:50:29.013Z,101858.24
2017-11-16T14:52:56.578Z,101857.20
2017-11-16T14:55:24.238Z,101863.81
2017-11-16T14:57:51.810Z,101850.81
2017-11-16T15:00:19.415Z,101854.79
2017-11-16T15:02:47.026Z,101858.59
2017-11-16T15:05:14.627Z,101854.70
2017-11-16T15:07:42.194Z,101847.69
2017-11-16T15:10:09.807Z,101846.91
2017-11-16T15:12:37.465Z,101846.33
2017-11-16T15:15:05.032Z,101841.52
2017-11-16T15:17:32.603Z,101841.34
2017-11-16T15:20:00.210Z,101839.83
2017-11-16T15:22:27.774Z,101841.11
2017-11-16T15:24:55.344Z,101837.85
2017-11-16T15:27:22.937Z,101839.62
2017-11-16T15:29:50.497Z,101840.19
2017-11-16T15:32:18.106Z,101834.84
2017-11-16T15:34:45.676Z,101829.94
2017-11-16T15:37:13.273Z,101833.03
2017-11-16T15:39:40.841Z,101836.81
2017-11-16T15:42:08.464Z,101841.88
2017-11-16T15:44:36.025Z,101849.86
2017-11-16T15:47:03.586Z,101859.25
2017-11-16T15:49:31.183Z,101850.88
2017-11-16T15:51:58.749Z,101856.30
2017-11-16T15:54:26.351Z,101859.25
2017-11-16T15:56:53.918Z,101858.32
2017-11-16T15:59:21.630Z,101869.88
2017-11-16T16:01:49.203Z,101858.13
2017-11-16T16:04:16.770Z,101856.84
2017-11-16T16:06:44.375Z,101854.74
2017-11-16T16:09:11.945Z,101851.45
2017-11-16T16:11:39.510Z,101856.64
2017-11-16T16:14:07.070Z,101844.78
2017-11-16T16:16:34.634Z,101851.31
2017-11-16T16:19:02.197Z,101849.44
2017-11-16T16:21:29.799Z,101850.20
2017-11-16T16:23:57.361Z,101853.35
2017-11-16T16:26:24.963Z,101848.64
2017-11-16T16:28:52.562Z,101841.61
2017-11-16T16:31:20.130Z,101852.72
2017-11-16T16:33:47.730Z,101845.23
2017-11-16T16:36:15.335Z,101850.11
2017-11-16T16:38:43.709Z,101843.00
2017-11-16T16:41:11.307Z,101842.91
2017-11-16T16:43:39.671Z,101843.53
2017-11-16T16:46:07.332Z,101834.12
2017-11-16T16:48:34.894Z,101833.09
2017-11-16T16:51:02.467Z,101828.98
2017-11-16T16:53:30.281Z,101824.95
2017-11-16T16:55:57.878Z,101825.02
2017-11-16T16:58:25.533Z,101824.47
2017-11-16T17:00:53.099Z,101829.70
2017-11-16T17:03:20.669Z,101830.98
2017-11-16T17:05:48.329Z,101820.34
2017-11-16T17:08:15.905Z,101821.48
2017-11-16T17:10:43.481Z,101814.52
2017-11-16T17:13:11.180Z,101814.75
2017-11-16T17:15:39.482Z,101814.23
2017-11-16T17:18:07.190Z,101810.63
2017-11-16T17:20:34.757Z,101811.84
2017-11-16T17:23:02.375Z,101799.17
2017-11-16T17:25:30.035Z,101809.46
2017-11-16T17:27:57.603Z,101808.30
2017-11-16T17:30:25.179Z,101814.02
2017-11-16T17:32:52.753Z,101810.52
2017-11-16T17:35:20.326Z,101812.49
2017-11-16T17:37:47.905Z,101811.02
2017-11-16T17:40:15.503Z,101811.78
2017-11-16T17:42:43.169Z,101811.31
2017-11-16T17:45:10.809Z,101808.18
2017-11-16T17:47:38.383Z,101818.52
2017-11-16T17:50:07.111Z,101819.86
2017-11-16T17:52:34.780Z,101812.77
2017-11-16T17:55:02.483Z,101813.59
2017-11-16T17:57:30.070Z,101810.11
2017-11-16T17:59:58.262Z,101805.88
2017-11-16T18:02:26.665Z,101807.10
2017-11-16T18:04:54.279Z,101799.39
2017-11-16T18:07:21.947Z,101804.58
2017-11-16T18:09:49.601Z,101799.67
2017-11-16T18:12:17.170Z,101798.97
2017-11-16T18:14:44.791Z,101793.59
2017-11-16T18:17:12.375Z,101793.31
2017-11-16T18:19:39.942Z,101794.39
2017-11-16T18:22:08.694Z,101792.80
2017-11-16T18:24:36.953Z,101794.18
2017-11-16T18:27:04.579Z,101795.67
2017-11-16T18:29:32.151Z,101792.11
2017-11-16T18:31:59.750Z,101787.98
2017-11-16T18:34:28.011Z,101789.66
2017-11-16T18:36:55.581Z,101794.32
2017-11-16T18:39:23.419Z,101791.37
2017-11-16T18:41:51.061Z,101790.70
2017-11-16T18:44:18.629Z,101777.75
2017-11-16T18:46:46.247Z,101779.44
2017-11-16T18:49:13.811Z,101788.77
2017-11-16T18:51:41.410Z,101784.80
2017-11-16T18:54:09.014Z,101786.62
2017-11-16T18:56:36.671Z,101789.29
2017-11-16T18:59:04.238Z,101800.79
2017-11-16T19:01:31.813Z,101799.31
2017-11-16T19:03:59.514Z,101800.77
2017-11-16T19:06:27.182Z,101793.52
2017-11-16T19:08:54.820Z,101788.25
2017-11-16T19:11:22.413Z,101794.55
2017-11-16T19:13:50.079Z,101793.50
2017-11-16T19:16:17.718Z,101801.11
2017-11-16T19:18:45.613Z,101796.97
2017-11-16T19:21:13.214Z,101801.50
2017-11-16T19:23:40.791Z,101797.66
2017-11-16T19:26:08.403Z,101791.02
2017-11-16T19:28:35.970Z,101790.77
2017-11-16T19:31:03.606Z,101791.59
2017-11-16T19:33:31.218Z,101790.38
2017-11-16T19:35:58.831Z,101791.85
2017-11-16T19:38:26.454Z,101788.80
2017-11-16T19:40:54.117Z,101785.84
2017-11-16T19:43:21.691Z,101785.84
2017-11-16T19:45:49.259Z,101781.95
2017-11-16T19:48:16.826Z,101781.84
2017-11-16T19:50:44.505Z,101788.30
2017-11-16T19:53:12.074Z,101791.22
2017-11-16T19:55:39.680Z,101792.63
2017-11-16T19:58:07.253Z,101794.89
2017-11-16T20:00:34.854Z,101793.50
2017-11-16T20:03:02.470Z,101797.50
2017-11-16T20:05:30.171Z,101787.97
2017-11-16T20:07:57.734Z,101794.36
2017-11-16T20:10:25.395Z,101789.58
2017-11-16T20:12:52.969Z,101788.17
2017-11-16T20:15:20.548Z,101784.19
2017-11-16T20:17:48.127Z,101787.08
2017-11-16T20:20:15.704Z,101784.66
2017-11-16T20:22:43.275Z,101782.29
2017-11-16T20:25:10.849Z,101788.92
2017-11-16T20:27:38.427Z,101788.96
2017-11-16T20:30:06.038Z,101796.45
2017-11-16T20:32:33.645Z,101798.58
2017-11-16T20:35:01.214Z,101802.42
2017-11-16T20:37:34.472Z,101798.56
2017-11-16T20:43:09.425Z,101797.73
2017-11-16T20:45:40.956Z,101790.94
2017-11-16T20:48:14.270Z,101787.88
2017-11-16T20:54:03.328Z,101781.57
2017-11-16T20:56:30.947Z,101784.95
2017-11-16T20:58:58.518Z,101787.03
2017-11-16T21:01:26.176Z,101783.10
2017-11-16T21:03:53.834Z,101778.95
2017-11-16T21:06:21.501Z,101776.94
2017-11-16T21:08:49.163Z,101772.11
2017-11-16T21:11:16.827Z,101774.19
2017-11-16T21:13:44.410Z,101775.14
2017-11-16T21:16:12.012Z,101772.18
2017-11-16T21:18:39.578Z,101766.34
2017-11-16T21:21:07.190Z,101761.38
2017-11-16T21:23:34.827Z,101761.83
2017-11-16T21:26:02.437Z,101760.23
2017-11-16T21:28:30.059Z,101757.91
2017-11-16T21:30:57.672Z,101749.31
2017-11-16T21:33:25.243Z,101749.59
2017-11-16T21:35:52.842Z,101750.47
2017-11-16T21:38:20.415Z,101753.91
2017-11-16T21:40:47.977Z,101747.28
2017-11-16T21:43:15.583Z,101746.81
2017-11-16T21:45:43.146Z,101745.17
2017-11-16T21:48:10.753Z,101754.36
2017-11-16T21:50:38.320Z,101758.52
2017-11-16T21:53:05.935Z,101756.50
2017-11-16T21:55:33.552Z,101760.73
2017-11-16T21:58:01.165Z,101768.28
2017-11-16T22:00:28.821Z,101768.61
2017-11-16T22:02:56.534Z,101764.70
2017-11-16T22:05:24.146Z,101764.46
2017-11-16T22:07:51.746Z,101764.92
2017-11-16T22:10:19.319Z,101754.02
2017-11-16T22:12:46.937Z,101749.94
2017-11-16T22:15:14.506Z,101751.38
2017-11-16T22:17:42.571Z,101754.97
2017-11-16T22:20:10.197Z,101757.36
2017-11-16T22:22:37.850Z,101756.70
2017-11-16T22:25:05.428Z,101756.34
2017-11-16T22:27:33.021Z,101762.29
2017-11-16T22:30:00.679Z,101753.65
2017-11-16T22:32:28.351Z,101757.32
2017-11-16T22:34:55.919Z,101764.17
2017-11-16T22:37:23.486Z,101770.80
2017-11-16T22:39:51.163Z,101765.52
2017-11-16T22:42:18.762Z,101761.69
2017-11-16T22:44:48.518Z,101762.08
2017-11-16T22:47:16.158Z,101761.47
2017-11-16T22:49:43.727Z,101759.94
2017-11-16T22:52:11.418Z,101760.09
2017-11-16T22:54:39.042Z,101765.46
2017-11-16T22:57:06.638Z,101773.50
2017-11-16T22:59:34.205Z,101764.43
2017-11-16T23:02:01.872Z,101767.16
2017-11-16T23:04:29.530Z,101771.36
2017-11-16T23:06:57.106Z,101770.20
2017-11-16T23:09:24.675Z,101771.49
2017-11-16T23:11:52.314Z,101767.70
2017-11-16T23:14:19.881Z,101767.09
2017-11-16T23:16:47.456Z,101768.77
2017-11-16T23:19:15.029Z,101759.73
2017-11-16T23:21:42.599Z,101755.44
2017-11-16T23:24:10.171Z,101754.48
2017-11-16T23:26:37.742Z,101746.22
2017-11-16T23:29:05.306Z,101741.83
2017-11-16T23:31:32.869Z,101741.75
2017-11-16T23:34:00.434Z,101745.64
2017-11-16T23:36:27.998Z,101749.30
2017-11-16T23:38:55.566Z,101753.06
2017-11-16T23:41:23.143Z,101763.42
2017-11-16T23:43:50.722Z,101755.94
2017-11-16T23:46:18.318Z,101760.28
2017-11-16T23:48:45.885Z,101751.09
2017-11-16T23:51:13.449Z,101753.38
2017-11-16T23:53:41.059Z,101744.38
2017-11-16T23:56:08.626Z,101749.06
2017-11-16T23:58:36.237Z,101745.08
